• Join FlightAware (Why Join?)
  • Login
  • US Flag 
03:34AM EST


 

Airport Tracker/Info


-or-


 

Live Flight TrackerFlight Track Log ✈ LOG6856 ✈ 13-Sep-2013 ✈ EGPR / BRR - EGPF / GLA

Flight Track Log - Related Links

Times and Time Zones

All times are in EDT time to prevent confusion due to time zone crossing. See the LOG6856 flight status page for this flight to view local times or setup timezone preferences in your user account.

Time Position Orientation Groundspeed Altitude Reporting Facility
EDT Latitude Longitude Course Direction KTS MPH feet Rate Location/Type
09:55AM 57.0296 -7.4593 North 1 1 400  Level FlightAware UK
09:55AM 57.0399 -7.4580 North 1 1 800 1,140 Climbing FlightAware UK
09:56AM 57.0470 -7.4453 44° Northeast 1 1 1,100 780 Climbing FlightAware UK
09:56AM 57.0483 -7.4267 83° East 1 1 1,300 960 Climbing FlightAware UK
09:56AM 57.0413 -7.4129 133° Southeast 1 1 1,700 960 Climbing FlightAware UK
09:56AM 57.0334 -7.4029 145° Southeast 1 1 1,900 780 Climbing FlightAware UK
09:57AM 57.0251 -7.3946 151° Southeast 1 1 2,200 1,140 Climbing FlightAware UK
09:57AM 57.0176 -7.3842 143° Southeast 1 1 2,600 960 Climbing FlightAware UK
09:57AM 57.0103 -7.3734 141° Southeast 1 1 2,800 960 Climbing FlightAware UK
09:58AM 57.0034 -7.3611 136° Southeast 1 1 3,200 960 Climbing FlightAware UK
09:58AM 56.9972 -7.3480 131° Southeast 1 1 3,400 780 Climbing FlightAware UK
09:58AM 56.9911 -7.3348 130° Southeast 1 1 3,700 1,140 Climbing FlightAware UK
09:59AM 56.9863 -7.3189 119° Southeast 1 1 4,100 780 Climbing FlightAware UK
09:59AM 56.9804 -7.3039 126° Southeast 1 1 4,200 660 Climbing FlightAware UK
09:59AM 56.9742 -7.2883 126° Southeast 1 1 4,500 960 Climbing FlightAware UK
09:59AM 56.9663 -7.2751 138° Southeast 1 1 4,800 960 Climbing FlightAware UK
10:00AM 56.9578 -7.2620 140° Southeast 1 1 5,100 660 Climbing FlightAware UK
10:00AM 56.9504 -7.2461 130° Southeast 1 1 5,200 480 Climbing FlightAware UK
10:00AM 56.9435 -7.2286 126° Southeast 1 1 5,400 780 Climbing FlightAware UK
10:01AM 56.9370 -7.2111 124° Southeast 1 1 5,700 780 Climbing FlightAware UK
10:01AM 56.9310 -7.1920 120° Southeast 1 1 5,900 480 Climbing FlightAware UK
10:01AM 56.9253 -7.1719 117° Southeast 1 1 6,000 540 Climbing FlightAware UK
10:02AM 56.9176 -7.1461 119° Southeast 1 1 6,300 840 Climbing FlightAware UK
10:02AM 56.9115 -7.1273 121° Southeast 1 1 6,600 660 Climbing FlightAware UK
10:02AM 56.9052 -7.1089 122° Southeast 1 1 6,700 300 Climbing FlightAware UK
10:03AM 56.8987 -7.0906 123° Southeast 1 1 6,800 480 Climbing FlightAware UK
10:03AM 56.8923 -7.0715 122° Southeast 1 1 7,000 480 Climbing FlightAware UK
10:03AM 56.8856 -7.0528 123° Southeast 1 1 7,100 300 Climbing FlightAware UK
10:03AM 56.8781 -7.0343 127° Southeast 1 1 7,200 480 Climbing FlightAware UK
10:04AM 56.8707 -7.0154 125° Southeast 1 1 7,400 480 Climbing FlightAware UK
10:04AM 56.8629 -6.9970 128° Southeast 1 1 7,500 120 Climbing FlightAware UK
10:04AM 56.8544 -6.9786 130° Southeast 1 1 7,500  Level FlightAware UK
10:05AM 56.8466 -6.9591 126° Southeast 1 1 7,500  Level FlightAware UK
10:05AM 56.8383 -6.9384 126° Southeast 1 1 7,500 -180 Level FlightAware UK
10:05AM 56.8290 -6.9176 129° Southeast 1 1 7,400  Descending FlightAware UK
10:06AM 56.8212 -6.8969 125° Southeast 1 1 7,500 120 Climbing FlightAware UK
10:06AM 56.8137 -6.8763 124° Southeast 1 1 7,500  Level FlightAware UK
10:06AM 56.8068 -6.8553 121° Southeast 1 1 7,500  Level FlightAware UK
10:06AM 56.8001 -6.8344 120° Southeast 1 1 7,500  Level FlightAware UK
10:07AM 56.7929 -6.8134 122° Southeast 1 1 7,500  Level FlightAware UK
10:07AM 56.7858 -6.7921 121° Southeast 1 1 7,500  Level FlightAware UK
10:07AM 56.7786 -6.7711 122° Southeast 1 1 7,500  Level FlightAware UK
10:08AM 56.7716 -6.7496 121° Southeast 1 1 7,500  Level FlightAware UK
10:08AM 56.7645 -6.7284 122° Southeast 1 1 7,500  Level FlightAware UK
10:08AM 56.7572 -6.7077 123° Southeast 1 1 7,500  Level FlightAware UK
10:09AM 56.7499 -6.6865 122° Southeast 1 1 7,500  Level FlightAware UK
10:09AM 56.7395 -6.6593 125° Southeast 1 1 7,500  Level FlightAware UK
10:09AM 56.7313 -6.6393 127° Southeast 1 1 7,500  Level FlightAware UK
10:10AM 56.7232 -6.6190 126° Southeast 1 1 7,500  Level FlightAware UK
10:10AM 56.7152 -6.5983 125° Southeast 1 1 7,500  Level FlightAware UK
10:10AM 56.7073 -6.5770 124° Southeast 1 1 7,500 300 Level FlightAware UK
10:10AM 56.6995 -6.5562 124° Southeast 1 1 7,700 480 Climbing FlightAware UK
10:11AM 56.6919 -6.5358 124° Southeast 1 1 7,800 480 Climbing FlightAware UK
10:11AM 56.6851 -6.5171 123° Southeast 1 1 8,000 660 Climbing FlightAware UK
10:11AM 56.6784 -6.4973 121° Southeast 1 1 8,200 660 Climbing FlightAware UK
10:12AM 56.6720 -6.4774 120° Southeast 1 1 8,400 480 Climbing FlightAware UK
10:12AM 56.6653 -6.4576 122° Southeast 1 1 8,500 480 Climbing FlightAware UK
10:12AM 56.6583 -6.4379 123° Southeast 1 1 8,700 660 Climbing FlightAware UK
10:13AM 56.6519 -6.4182 121° Southeast 1 1 8,900 480 Climbing FlightAware UK
10:13AM 56.6451 -6.3989 122° Southeast 1 1 9,000 480 Climbing FlightAware UK
10:13AM 56.6379 -6.3801 125° Southeast 1 1 9,200 480 Climbing FlightAware UK
10:13AM 56.6306 -6.3613 125° Southeast 1 1 9,300 480 Climbing FlightAware UK
10:14AM 56.6233 -6.3426 126° Southeast 1 1 9,500 300 Climbing FlightAware UK
10:14AM 56.6154 -6.3236 127° Southeast 1 1 9,500  Level FlightAware UK
10:14AM 56.6064 -6.3033 129° Southeast 1 1 9,500  Level FlightAware UK
10:15AM 56.5979 -6.2829 127° Southeast 1 1 9,500  Level FlightAware UK
10:15AM 56.5896 -6.2621 126° Southeast 1 1 9,500  Level FlightAware UK
10:15AM 56.5812 -6.2415 126° Southeast 1 1 9,500  Level FlightAware UK
10:16AM 56.5729 -6.2204 125° Southeast 1 1 9,500  Level FlightAware UK
10:16AM 56.5647 -6.1995 126° Southeast 1 1 9,500  Level FlightAware UK
10:16AM 56.5564 -6.1791 126° Southeast 1 1 9,500  Level FlightAware UK
10:16AM 56.5481 -6.1587 127° Southeast 1 1 9,500  Level FlightAware UK
10:17AM 56.5399 -6.1384 126° Southeast 1 1 9,500  Level FlightAware UK
10:17AM 56.5317 -6.1180 126° Southeast 1 1 9,500  Level FlightAware UK
10:17AM 56.5235 -6.0974 126° Southeast 1 1 9,500  Level FlightAware UK
10:18AM 56.5155 -6.0764 125° Southeast 1 1 9,500 -180 Level FlightAware UK
10:18AM 56.5075 -6.0556 125° Southeast 1 1 9,400  Descending FlightAware UK
10:18AM 56.4996 -6.0345 124° Southeast 1 1 9,500 120 Climbing FlightAware UK
10:19AM 56.4917 -6.0131 124° Southeast 1 1 9,500  Level FlightAware UK
10:19AM 56.4836 -5.9919 124° Southeast 1 1 9,500  Level FlightAware UK
10:19AM 56.4754 -5.9708 125° Southeast 1 1 9,500  Level FlightAware UK
10:19AM 56.4671 -5.9498 125° Southeast 1 1 9,500 -180 Level FlightAware UK
10:20AM 56.4591 -5.9279 124° Southeast 1 1 9,400  Descending FlightAware UK
10:20AM 56.4513 -5.9060 123° Southeast 1 1 9,500 120 Climbing FlightAware UK
10:20AM 56.4436 -5.8844 123° Southeast 1 1 9,500  Level FlightAware UK
10:21AM 56.4360 -5.8627 122° Southeast 1 1 9,500  Level FlightAware UK
10:21AM 56.4279 -5.8418 125° Southeast 1 1 9,500  Level FlightAware UK
10:21AM 56.4198 -5.8206 125° Southeast 1 1 9,500  Level FlightAware UK
10:22AM 56.4093 -5.7921 124° Southeast 1 1 9,500  Level FlightAware UK
10:22AM 56.4015 -5.7711 124° Southeast 1 1 9,500  Level FlightAware UK
10:22AM 56.3936 -5.7509 125° Southeast 1 1 9,500  Level FlightAware UK
10:23AM 56.3860 -5.7306 124° Southeast 1 1 9,500  Level FlightAware UK
10:23AM 56.3784 -5.7100 124° Southeast 1 1 9,500  Level FlightAware UK
10:23AM 56.3709 -5.6892 123° Southeast 1 1 9,500  Level FlightAware UK
10:23AM 56.3631 -5.6686 124° Southeast 1 1 9,500  Level FlightAware UK
10:24AM 56.3552 -5.6479 124° Southeast 1 1 9,500  Level FlightAware UK
10:24AM 56.3474 -5.6270 124° Southeast 1 1 9,500  Level FlightAware UK
10:24AM 56.3398 -5.6059 123° Southeast 1 1 9,500  Level FlightAware UK
10:25AM 56.3322 -5.5848 123° Southeast 1 1 9,500  Level FlightAware UK
10:25AM 56.3246 -5.5636 123° Southeast 1 1 9,500  Level FlightAware UK
10:25AM 56.3152 -5.5443 131° Southeast 1 1 9,500 -540 Level FlightAware UK
10:26AM 56.3065 -5.5242 128° Southeast 1 1 9,200 -840 Descending FlightAware UK
10:26AM 56.2977 -5.5012 124° Southeast 1 1 9,000 -720 Descending FlightAware UK
10:26AM 56.2885 -5.4784 126° Southeast 1 1 8,800 -720 Descending FlightAware UK
10:26AM 56.2789 -5.4556 127° Southeast 1 1 8,600 -720 Descending FlightAware UK
10:27AM 56.2694 -5.4328 127° Southeast 1 1 8,400 -720 Descending FlightAware UK
10:27AM 56.2601 -5.4099 126° Southeast 1 1 8,200 -720 Descending FlightAware UK
10:27AM 56.2515 -5.3860 123° Southeast 1 1 8,000 -720 Descending FlightAware UK
10:28AM 56.2435 -5.3619 121° Southeast 1 1 7,800 -720 Descending FlightAware UK
10:28AM 56.2355 -5.3378 121° Southeast 1 1 7,600 -720 Descending FlightAware UK
10:28AM 56.2271 -5.3147 123° Southeast 1 1 7,400 -840 Descending FlightAware UK
10:29AM 56.2179 -5.2927 127° Southeast 1 1 7,100 -720 Descending FlightAware UK
10:29AM 56.2088 -5.2709 127° Southeast 1 1 7,000 -360 Descending FlightAware UK
10:29AM 56.2004 -5.2511 127° Southeast 1 1 6,900  Descending FlightAware UK
10:29AM 56.1930 -5.2313 124° Southeast 1 1 7,000 120 Climbing FlightAware UK
10:30AM 56.1854 -5.2119 125° Southeast 1 1 7,000  Level FlightAware UK
10:30AM 56.1781 -5.1920 124° Southeast 1 1 7,000  Level FlightAware UK
10:30AM 56.1708 -5.1716 123° Southeast 1 1 7,000 -180 Level FlightAware UK
10:31AM 56.1591 -5.1462 130° Southeast 1 1 6,900 -180 Descending FlightAware UK
10:31AM 56.1518 -5.1253 122° Southeast 1 1 6,900  Level FlightAware UK
10:31AM 56.1431 -5.1066 130° Southeast 1 1 6,900  Level FlightAware UK
10:32AM 56.1345 -5.0880 129° Southeast 1 1 6,900 -180 Level FlightAware UK
10:32AM 56.1266 -5.0681 126° Southeast 1 1 6,800  Descending FlightAware UK
10:32AM 56.1183 -5.0484 127° Southeast 1 1 6,900 300 Climbing FlightAware UK
10:33AM 56.1099 -5.0287 127° Southeast 1 1 7,000 120 Climbing FlightAware UK
10:33AM 56.1017 -5.0088 126° Southeast 1 1 7,000 -300 Level FlightAware UK
10:33AM 56.0881 -4.9754 126° Southeast 1 1 6,800 -540 Descending FlightAware UK
10:34AM 56.0794 -4.9553 128° Southeast 1 1 6,600 -540 Descending FlightAware UK
10:34AM 56.0703 -4.9343 128° Southeast 1 1 6,500 -540 Descending FlightAware UK
10:34AM 56.0616 -4.9140 127° Southeast 1 1 6,300 -720 Descending FlightAware UK
10:35AM 56.0530 -4.8928 126° Southeast 1 1 6,100 -840 Descending FlightAware UK
10:35AM 56.0440 -4.8721 128° Southeast 1 1 5,800 -720 Descending FlightAware UK
10:35AM 56.0315 -4.8452 130° Southeast 1 1 5,600 -600 Descending FlightAware UK
10:36AM 56.0199 -4.8310 145° Southeast 1 1 5,400 -720 Descending FlightAware UK
10:36AM 56.0060 -4.8238 164° South 1 1 5,200 -720 Descending FlightAware UK
10:36AM 55.9928 -4.8153 160° South 1 1 5,000 -540 Descending FlightAware UK
10:36AM 55.9794 -4.8074 162° South 1 1 4,900 -360 Descending FlightAware UK
10:37AM 55.9658 -4.8000 163° South 1 1 4,800 -180 Descending FlightAware UK
10:37AM 55.9523 -4.7923 162° South 1 1 4,800  Level FlightAware UK
10:37AM 55.9390 -4.7849 163° South 1 1 4,800  Level FlightAware UK
10:38AM 55.9265 -4.7777 162° South 1 1 4,800  Level FlightAware UK
10:38AM 55.9140 -4.7713 164° South 1 1 4,800  Level FlightAware UK
10:38AM 55.9011 -4.7686 173° South 1 1 4,800  Level FlightAware UK
10:39AM 55.8882 -4.7652 172° South 1 1 4,800  Level FlightAware UK
10:39AM 55.8755 -4.7654 180° South 1 1 4,800 120 Level FlightAware UK
10:39AM 55.8662 -4.7784 218° Southwest 1 1 4,900 -180 Climbing FlightAware UK
10:40AM 55.8505 -4.8037 222° Southwest 1 1 4,700 -180 Descending FlightAware UK
10:40AM 55.8410 -4.8191 222° Southwest 1 1 4,800 120 Climbing FlightAware UK
10:40AM 55.8278 -4.8398 221° Southwest 1 1 4,800 120 Level FlightAware UK
10:41AM 55.8182 -4.8555 222° Southwest 1 1 4,900 120 Climbing FlightAware UK
10:41AM 55.8087 -4.8710 222° Southwest 1 1 4,900 -180 Level FlightAware UK
10:41AM 55.7993 -4.8868 224° Southwest 1 1 4,800  Descending FlightAware UK
10:42AM 55.7897 -4.9024 222° Southwest 1 1 4,900 -180 Climbing FlightAware UK
10:42AM 55.7803 -4.9178 223° Southwest 1 1 4,700 -180 Descending FlightAware UK
10:42AM 55.7707 -4.9333 222° Southwest 1 1 4,800 300 Climbing FlightAware UK
10:42AM 55.7579 -4.9394 195° South 1 1 4,900  Climbing FlightAware UK
10:43AM 55.7455 -4.9291 155° Southeast 1 1 4,800 -180 Descending FlightAware UK
10:43AM 55.7379 -4.9090 124° Southeast 1 1 4,800  Level FlightAware UK
10:43AM 55.7304 -4.8891 124° Southeast 1 1 4,800  Level FlightAware UK
10:44AM 55.7233 -4.8692 123° Southeast 1 1 4,800  Level FlightAware UK
10:44AM 55.7161 -4.8490 122° Southeast 1 1 4,800  Level FlightAware UK
10:44AM 55.7092 -4.8289 122° Southeast 1 1 4,800 -540 Level FlightAware UK
10:45AM 55.7022 -4.8064 119° Southeast 1 1 4,500 -1,020 Descending FlightAware UK
10:45AM 55.6944 -4.7848 123° Southeast 1 1 4,200 -840 Descending FlightAware UK
10:45AM 55.6904 -4.7605 106° East 1 1 4,000 -720 Descending FlightAware UK
10:45AM 55.6936 -4.7369 77° East 1 1 3,800 -540 Descending FlightAware UK
10:46AM 55.7033 -4.7213 42° Northeast 1 1 3,700 -540 Descending FlightAware UK
10:46AM 55.7145 -4.7094 31° Northeast 1 1 3,500 -840 Descending FlightAware UK
10:46AM 55.7236 -4.6930 46° Northeast 1 1 3,200 -840 Descending FlightAware UK
10:47AM 55.7343 -4.6808 33° Northeast 1 1 3,000 -600 Descending FlightAware UK
10:47AM 55.7457 -4.6613 44° Northeast 1 1 2,800 -480 Descending FlightAware UK
10:47AM 55.7530 -4.6459 50° Northeast 1 1 2,700 -360 Descending FlightAware UK
10:48AM 55.7617 -4.6323 41° Northeast 1 1 2,600 -360 Descending FlightAware UK
10:48AM 55.7707 -4.6189 40° Northeast 1 1 2,500 -540 Descending FlightAware UK
10:48AM 55.7797 -4.6046 42° Northeast 1 1 2,300 -840 Descending FlightAware UK
10:49AM 55.8128 -4.5444 46° Northeast 1 1 1,300 -720 Descending FlightAware UK
10:50AM 55.8198 -4.5280 53° Northeast 1 1 1,200 -540 Descending FlightAware UK
10:50AM 55.8271 -4.5161 42° Northeast 1 1 900 -600 Descending FlightAware UK
10:51AM 55.8317 -4.5080 44° Northeast 1 1 800 -360 Descending FlightAware UK
10:51AM 55.8362 -4.4992 48° Northeast 1 1 700 -540 Descending FlightAware UK
10:51AM 55.8410 -4.4903 46° Northeast 1 1 500 -600 Descending FlightAware UK
10:52AM 55.8477 -4.4787 44° Northeast 1 1 300 -480 Descending FlightAware UK
10:52AM 55.8525 -4.4697 46° Northeast 1 1 200 -360 Descending FlightAware UK